createdAt,value
2019-01-20T00:00:54.250Z,-4.05
2019-01-20T00:03:24.424Z,-4.17
2019-01-20T00:05:54.583Z,-4.17
2019-01-20T00:08:25.985Z,-4.17
2019-01-20T00:10:54.600Z,-4.22
2019-01-20T00:13:25.999Z,-4.29
2019-01-20T00:15:54.686Z,-4.28
2019-01-20T00:18:26.003Z,-4.31
2019-01-20T00:20:54.564Z,-4.23
2019-01-20T00:23:25.977Z,-4.30
2019-01-20T00:25:54.978Z,-4.28
2019-01-20T00:28:25.077Z,-4.24
2019-01-20T00:30:55.169Z,-4.29
2019-01-20T00:33:25.313Z,-4.32
2019-01-20T00:35:56.736Z,-4.27
2019-01-20T00:38:25.713Z,-4.24
2019-01-20T00:40:54.260Z,-4.35
2019-01-20T00:43:24.331Z,-4.46
2019-01-20T00:45:54.474Z,-4.43
2019-01-20T00:48:23.398Z,-4.47
2019-01-20T00:50:54.266Z,-4.48
2019-01-20T00:53:24.830Z,-4.52
2019-01-20T00:55:53.452Z,-4.56
2019-01-20T00:58:24.779Z,-4.63
2019-01-20T01:00:53.439Z,-4.73
2019-01-20T01:03:22.155Z,-4.72
2019-01-20T01:05:51.376Z,-4.75
2019-01-20T01:08:20.083Z,-4.78
2019-01-20T01:10:48.965Z,-4.74
2019-01-20T01:13:18.225Z,-4.63
2019-01-20T01:15:46.933Z,-4.74
2019-01-20T01:18:15.543Z,-4.82
2019-01-20T01:20:44.265Z,-4.77
2019-01-20T01:23:12.977Z,-4.65
2019-01-20T01:25:41.555Z,-4.66
2019-01-20T01:28:10.208Z,-4.66
2019-01-20T01:30:38.766Z,-4.72
2019-01-20T01:33:07.322Z,-4.79
2019-01-20T01:35:36.341Z,-4.86
2019-01-20T01:38:04.894Z,-4.88
2019-01-20T01:40:33.790Z,-4.89
2019-01-20T01:43:02.359Z,-4.89
2019-01-20T01:45:30.987Z,-4.82
2019-01-20T01:47:59.597Z,-4.74
2019-01-20T01:50:28.518Z,-4.84
2019-01-20T01:52:57.120Z,-4.99
2019-01-20T01:55:25.827Z,-5.00
2019-01-20T01:57:54.646Z,-5.00
2019-01-20T02:00:24.076Z,-5.13
2019-01-20T02:02:52.696Z,-5.22
2019-01-20T02:05:21.937Z,-5.24
2019-01-20T02:07:50.535Z,-5.20
2019-01-20T02:10:21.104Z,-5.18
2019-01-20T02:12:52.942Z,-5.26
2019-01-20T02:15:25.827Z,-5.34
2019-01-20T02:17:54.390Z,-5.33
2019-01-20T02:20:24.988Z,-5.33
2019-01-20T02:22:53.790Z,-5.29
2019-01-20T02:25:22.963Z,-5.24
2019-01-20T02:27:53.256Z,-5.24
2019-01-20T02:30:29.255Z,-5.15
2019-01-20T02:32:57.911Z,-5.15
2019-01-20T02:35:26.789Z,-5.23
2019-01-20T02:37:55.434Z,-5.40
2019-01-20T02:40:24.329Z,-5.37
2019-01-20T02:42:54.887Z,-5.39
2019-01-20T02:45:26.500Z,-5.34
2019-01-20T02:47:55.082Z,-5.30
2019-01-20T02:50:25.692Z,-5.22
2019-01-20T02:52:54.259Z,-5.22
2019-01-20T02:55:24.430Z,-5.15
2019-01-20T02:57:53.462Z,-5.20
2019-01-20T03:00:25.023Z,-5.24
2019-01-20T03:02:55.295Z,-5.22
2019-01-20T03:05:30.049Z,-5.26
2019-01-20T03:08:01.295Z,-5.38
2019-01-20T03:10:29.957Z,-5.55
2019-01-20T03:12:58.565Z,-5.64
2019-01-20T03:15:29.321Z,-5.55
2019-01-20T03:17:58.265Z,-5.50
2019-01-20T03:20:26.983Z,-5.49
2019-01-20T03:22:55.590Z,-5.47
2019-01-20T03:25:26.865Z,-5.53
2019-01-20T03:27:58.109Z,-5.58
2019-01-20T03:30:29.388Z,-5.58
2019-01-20T03:33:00.678Z,-5.71
2019-01-20T03:35:32.057Z,-5.68
2019-01-20T03:38:03.675Z,-5.67
2019-01-20T03:40:32.356Z,-5.79
2019-01-20T03:43:04.049Z,-5.81
2019-01-20T03:45:35.643Z,-5.83
2019-01-20T03:48:07.215Z,-5.81
2019-01-20T03:50:38.729Z,-5.79
2019-01-20T03:53:07.313Z,-5.81
2019-01-20T03:55:38.703Z,-5.80
2019-01-20T03:58:10.490Z,-5.82
2019-01-20T04:00:39.329Z,-5.78
2019-01-20T04:03:10.796Z,-5.84
2019-01-20T04:05:42.383Z,-5.76
2019-01-20T04:08:10.999Z,-5.81
2019-01-20T04:10:42.374Z,-5.85
2019-01-20T04:13:10.981Z,-5.76
2019-01-20T04:15:42.569Z,-5.85
2019-01-20T04:18:11.135Z,-5.88
2019-01-20T04:20:39.706Z,-5.80
2019-01-20T04:23:08.630Z,-5.87
2019-01-20T04:25:37.253Z,-5.91
2019-01-20T04:28:06.269Z,-5.94
2019-01-20T04:30:34.892Z,-5.95
2019-01-20T04:33:03.514Z,-5.96
2019-01-20T04:35:32.127Z,-6.09
2019-01-20T04:38:00.734Z,-6.07
2019-01-20T04:40:29.342Z,-5.98
2019-01-20T04:42:58.056Z,-6.06
2019-01-20T04:45:29.744Z,-6.09
2019-01-20T04:47:58.349Z,-6.09
2019-01-20T04:50:26.963Z,-6.07
2019-01-20T04:52:55.673Z,-6.02
2019-01-20T04:55:24.467Z,-5.96
2019-01-20T04:57:54.453Z,-6.03
2019-01-20T05:00:24.936Z,-6.08
2019-01-20T05:02:53.827Z,-6.22
2019-01-20T05:05:25.131Z,-6.30
2019-01-20T05:07:55.271Z,-6.21
2019-01-20T05:10:26.762Z,-6.25
2019-01-20T05:12:55.469Z,-6.25
2019-01-20T05:15:24.966Z,-6.14
2019-01-20T05:17:55.167Z,-6.01
2019-01-20T05:20:25.765Z,-6.01
2019-01-20T05:22:54.754Z,-6.09
2019-01-20T05:25:23.369Z,-6.04
2019-01-20T05:27:53.826Z,-6.09
2019-01-20T05:30:26.233Z,-6.17
2019-01-20T05:32:54.832Z,-6.08
2019-01-20T05:35:23.852Z,-6.04
2019-01-20T05:37:55.657Z,-6.17
2019-01-20T05:40:24.374Z,-6.32
2019-01-20T05:42:54.541Z,-6.37
2019-01-20T05:45:24.639Z,-6.36
2019-01-20T05:47:56.270Z,-6.32
2019-01-20T05:50:25.150Z,-6.40
2019-01-20T05:52:55.294Z,-6.44
2019-01-20T05:55:27.014Z,-6.47
2019-01-20T05:57:56.002Z,-6.39
2019-01-20T06:00:27.004Z,-6.39
2019-01-20T06:02:55.908Z,-6.42
2019-01-20T06:05:24.551Z,-6.48
2019-01-20T06:07:56.025Z,-6.49
2019-01-20T06:10:24.660Z,-6.52
2019-01-20T06:12:56.273Z,-6.51
2019-01-20T06:15:24.986Z,-6.40
2019-01-20T06:17:56.265Z,-6.50
2019-01-20T06:20:27.785Z,-6.42
2019-01-20T06:22:59.319Z,-6.43
2019-01-20T06:25:30.918Z,-6.49
2019-01-20T06:28:02.878Z,-6.43
2019-01-20T06:30:32.079Z,-6.40
2019-01-20T06:33:03.736Z,-6.37
2019-01-20T06:35:32.463Z,-6.33
2019-01-20T06:38:03.685Z,-6.29
2019-01-20T06:40:32.243Z,-6.25
2019-01-20T06:43:03.950Z,-6.25
2019-01-20T06:45:32.509Z,-6.38
2019-01-20T06:48:04.350Z,-6.42
2019-01-20T06:50:33.283Z,-6.56
2019-01-20T06:53:05.070Z,-6.56
2019-01-20T06:55:36.576Z,-6.53
2019-01-20T06:58:05.316Z,-6.51
2019-01-20T07:00:36.833Z,-6.52
2019-01-20T07:03:08.825Z,-6.41
2019-01-20T07:05:40.131Z,-6.45
2019-01-20T07:08:11.589Z,-6.44
2019-01-20T07:10:40.121Z,-6.33
2019-01-20T07:13:09.358Z,-6.26
2019-01-20T07:15:39.000Z,-6.30
2019-01-20T07:18:07.630Z,-6.19
2019-01-20T07:20:36.249Z,-6.22
2019-01-20T07:23:07.540Z,-6.35
2019-01-20T07:25:38.940Z,-6.26
2019-01-20T07:28:10.228Z,-6.30
2019-01-20T07:30:38.855Z,-6.24
2019-01-20T07:33:07.486Z,-6.31
2019-01-20T07:35:39.085Z,-6.28
2019-01-20T07:38:08.029Z,-6.34
2019-01-20T07:40:39.723Z,-6.31
2019-01-20T07:43:16.824Z,-6.21
2019-01-20T07:45:44.603Z,-6.17
2019-01-20T07:48:16.346Z,-6.12
2019-01-20T07:50:48.360Z,-6.08
2019-01-20T07:53:19.627Z,-5.99
2019-01-20T07:55:52.342Z,-5.95
2019-01-20T07:58:26.900Z,-5.86
2019-01-20T08:00:58.216Z,-5.77
2019-01-20T08:03:29.458Z,-5.80
2019-01-20T08:05:58.511Z,-5.80
2019-01-20T08:08:27.175Z,-5.81
2019-01-20T08:10:55.811Z,-5.73
2019-01-20T08:13:24.683Z,-5.62
2019-01-20T08:15:56.228Z,-5.54
2019-01-20T08:18:28.113Z,-5.39
2019-01-20T08:20:59.694Z,-5.27
2019-01-20T08:23:28.318Z,-5.23
2019-01-20T08:26:00.034Z,-5.13
2019-01-20T08:28:28.606Z,-5.13
2019-01-20T08:31:00.016Z,-5.05
2019-01-20T08:33:29.042Z,-5.07
2019-01-20T08:35:57.619Z,-4.94
2019-01-20T08:38:26.280Z,-4.83
2019-01-20T08:40:54.895Z,-4.89
2019-01-20T08:43:23.520Z,-4.78
2019-01-20T08:46:09.950Z,-4.80
2019-01-20T08:48:41.534Z,-4.81
2019-01-20T08:51:10.468Z,-4.81
2019-01-20T08:53:39.430Z,-4.70
2019-01-20T08:56:08.059Z,-4.68
2019-01-20T08:58:36.719Z,-4.63
2019-01-20T09:01:05.650Z,-4.53
2019-01-20T09:03:34.216Z,-4.44
2019-01-20T09:06:02.778Z,-4.38
2019-01-20T09:08:31.343Z,-4.26
2019-01-20T09:10:59.919Z,-4.22
2019-01-20T09:13:28.785Z,-4.07
2019-01-20T09:15:57.356Z,-4.14
2019-01-20T09:18:25.941Z,-4.03
2019-01-20T09:20:54.512Z,-4.05
2019-01-20T09:23:23.497Z,-4.00
2019-01-20T09:25:55.237Z,-3.79
2019-01-20T09:28:26.753Z,-3.84
2019-01-20T09:30:55.318Z,-3.77
2019-01-20T09:33:27.135Z,-3.64
2019-01-20T09:35:58.664Z,-3.55
2019-01-20T09:38:27.691Z,-3.37
2019-01-20T09:40:56.309Z,-3.42
2019-01-20T09:43:24.917Z,-3.29
2019-01-20T09:45:57.326Z,-3.16
2019-01-20T09:48:26.366Z,-2.93
2019-01-20T09:50:57.643Z,-2.86
2019-01-20T09:53:26.213Z,-2.79
2019-01-20T09:55:54.790Z,-2.80
2019-01-20T09:58:23.731Z,-2.65
2019-01-20T10:00:52.311Z,-2.64
2019-01-20T10:03:20.921Z,-2.69
2019-01-20T10:05:52.657Z,-2.62
2019-01-20T10:08:23.608Z,-2.55
2019-01-20T10:10:52.218Z,-2.46
2019-01-20T10:13:23.495Z,-2.45
2019-01-20T10:44:29.426Z,-1.62
2019-01-20T10:47:00.714Z,-1.55
2019-01-20T10:49:32.007Z,-1.60
2019-01-20T10:52:03.181Z,-1.59
2019-01-20T10:54:34.262Z,-1.50
2019-01-20T10:57:05.520Z,-1.48
2019-01-20T10:59:34.185Z,-1.48
2019-01-20T11:02:05.977Z,-1.38
2019-01-20T11:04:34.708Z,-1.33
2019-01-20T11:07:03.321Z,-1.21
2019-01-20T11:09:34.914Z,-1.08
2019-01-20T11:12:03.625Z,-1.04
2019-01-20T11:14:32.258Z,-0.87
2019-01-20T11:17:00.839Z,-0.78
2019-01-20T11:19:35.740Z,-0.79
2019-01-20T11:22:04.376Z,-0.76
2019-01-20T11:24:33.387Z,-0.69
2019-01-20T11:27:05.540Z,-0.75
2019-01-20T11:29:36.879Z,-0.66
2019-01-20T11:32:15.160Z,-0.56
2019-01-20T11:35:29.533Z,-0.54
2019-01-20T11:37:58.274Z,-0.52
2019-01-20T11:40:26.864Z,-0.45
2019-01-20T11:42:55.585Z,-0.46
2019-01-20T11:45:26.608Z,-0.42
2019-01-20T11:47:55.375Z,-0.29
2019-01-20T11:50:24.105Z,-0.29
2019-01-20T11:52:52.671Z,-0.35
2019-01-20T11:55:23.725Z,-0.32
2019-01-20T11:57:52.552Z,-0.32
2019-01-20T12:00:34.874Z,-0.23
2019-01-20T12:03:06.727Z,-0.19
2019-01-20T12:05:35.687Z,-0.15
2019-01-20T12:08:07.961Z,-0.01
2019-01-20T12:10:36.711Z,0.01
2019-01-20T12:13:06.909Z,0.22
2019-01-20T12:15:38.451Z,0.23
2019-01-20T12:18:07.110Z,0.23
2019-01-20T12:20:38.828Z,0.16
2019-01-20T12:23:07.639Z,0.20
2019-01-20T12:25:38.925Z,0.39
2019-01-20T12:28:07.640Z,0.28
2019-01-20T12:30:38.585Z,0.30
2019-01-20T12:33:07.497Z,0.47
2019-01-20T12:46:01.611Z,0.44
2019-01-20T12:48:30.236Z,0.46
2019-01-20T12:51:19.787Z,0.48
2019-01-20T12:53:48.343Z,0.55
2019-01-20T12:56:16.938Z,0.57
2019-01-20T12:58:45.511Z,0.57
2019-01-20T13:01:14.176Z,0.45
2019-01-20T13:03:42.785Z,0.52
2019-01-20T13:06:12.419Z,0.68
2019-01-20T13:08:41.035Z,0.74
2019-01-20T13:11:10.085Z,0.74
2019-01-20T13:13:38.682Z,0.76
2019-01-20T13:16:07.423Z,0.82
2019-01-20T13:18:36.022Z,0.83
2019-01-20T13:21:04.960Z,0.79
2019-01-20T13:23:33.529Z,0.77
2019-01-20T13:26:02.181Z,0.76
2019-01-20T13:28:30.805Z,0.83
2019-01-20T13:30:59.447Z,0.81
2019-01-20T13:33:28.899Z,0.85
2019-01-20T13:35:57.534Z,0.76
2019-01-20T13:38:26.695Z,0.88
2019-01-20T13:40:57.694Z,0.83
2019-01-20T13:43:26.387Z,0.91
2019-01-20T13:45:55.010Z,0.73
2019-01-20T13:48:25.180Z,0.63
2019-01-20T13:50:55.123Z,0.57
2019-01-20T13:53:25.224Z,0.67
2019-01-20T13:56:01.119Z,0.58
2019-01-20T13:58:26.876Z,0.42
2019-01-20T14:00:58.268Z,0.43
2019-01-20T14:03:26.907Z,0.36
2019-01-20T14:05:55.929Z,0.37
2019-01-20T14:08:24.505Z,0.35
2019-01-20T14:10:53.309Z,0.31
2019-01-20T14:13:23.550Z,0.31
2019-01-20T14:15:52.203Z,0.27
2019-01-20T14:18:20.888Z,0.32
2019-01-20T14:20:49.623Z,0.23
2019-01-20T14:23:18.275Z,0.17
2019-01-20T14:25:47.291Z,0.29
2019-01-20T14:28:15.908Z,0.23
2019-01-20T14:30:44.997Z,0.17
2019-01-20T14:33:13.570Z,0.12
2019-01-20T14:35:42.291Z,-0.05
2019-01-20T14:38:11.272Z,-0.38
2019-01-20T14:40:39.837Z,-0.49
2019-01-20T14:43:08.454Z,-0.62
2019-01-20T14:45:42.982Z,-0.80
2019-01-20T14:48:11.889Z,-0.80
2019-01-20T14:50:40.531Z,-0.95
2019-01-20T14:53:09.161Z,-0.93
2019-01-20T14:55:37.733Z,-1.02
2019-01-20T14:58:06.594Z,-1.04
2019-01-20T15:00:37.220Z,-1.18
2019-01-20T15:03:06.874Z,-1.28
2019-01-20T15:05:35.703Z,-1.28
2019-01-20T15:08:05.322Z,-1.39
2019-01-20T15:10:34.261Z,-1.56
2019-01-20T15:13:03.382Z,-1.45
2019-01-20T15:15:35.080Z,-1.58
2019-01-20T15:18:04.815Z,-1.55
2019-01-20T15:20:33.548Z,-1.66
2019-01-20T15:23:02.160Z,-1.79
2019-01-20T15:25:31.282Z,-1.74
2019-01-20T15:27:59.993Z,-1.75
2019-01-20T15:30:53.810Z,-1.59
2019-01-20T15:33:25.195Z,-1.64
2019-01-20T15:35:56.780Z,-1.58
2019-01-20T15:38:25.352Z,-1.68
2019-01-20T15:40:53.925Z,-1.65
2019-01-20T15:43:24.917Z,-1.68
2019-01-20T15:45:53.552Z,-1.81
2019-01-20T15:48:22.186Z,-1.74
2019-01-20T15:50:51.882Z,-2.01
2019-01-20T15:53:20.392Z,-1.97
2019-01-20T15:55:53.615Z,-2.00
2019-01-20T15:58:22.204Z,-1.99
2019-01-20T16:00:50.814Z,-1.94
2019-01-20T16:03:19.358Z,-2.03
2019-01-20T16:05:47.921Z,-2.18
2019-01-20T16:08:16.490Z,-2.15
2019-01-20T16:10:45.464Z,-2.23
2019-01-20T16:13:14.040Z,-2.14
2019-01-20T16:15:42.709Z,-2.19
2019-01-20T16:18:14.381Z,-2.16
2019-01-20T16:20:41.883Z,-2.32
2019-01-20T16:23:10.801Z,-2.32
2019-01-20T16:25:39.377Z,-2.34
2019-01-20T16:28:08.303Z,-2.34
2019-01-20T16:30:38.205Z,-2.37
2019-01-20T16:33:06.874Z,-2.38
2019-01-20T16:35:35.856Z,-2.30
2019-01-20T16:38:05.079Z,-2.19
2019-01-20T16:40:34.001Z,-2.18
2019-01-20T16:43:02.772Z,-2.10
2019-01-20T16:45:41.982Z,-2.12
2019-01-20T16:48:08.040Z,-2.10
2019-01-20T16:50:36.768Z,-2.16
2019-01-20T16:53:05.455Z,-2.33
2019-01-20T16:55:34.017Z,-2.30
2019-01-20T16:58:02.651Z,-2.19
2019-01-20T17:00:33.900Z,-2.37
2019-01-20T17:03:02.478Z,-2.14
2019-01-20T17:05:31.047Z,-2.28
2019-01-20T17:08:00.001Z,-2.11
2019-01-20T17:10:31.486Z,-2.11
2019-01-20T17:13:00.153Z,-2.34
2019-01-20T17:15:39.364Z,-2.22
2019-01-20T17:18:06.670Z,-2.14
2019-01-20T17:20:35.444Z,-2.32
2019-01-20T17:23:04.666Z,-2.22
2019-01-20T17:25:33.233Z,-2.34
2019-01-20T17:28:01.908Z,-2.40
2019-01-20T17:30:33.219Z,-2.32
2019-01-20T17:33:02.478Z,-2.31
2019-01-20T17:35:31.495Z,-2.32
2019-01-20T17:38:00.387Z,-2.24
2019-01-20T17:40:29.923Z,-2.02
2019-01-20T17:42:58.742Z,-1.95
2019-01-20T17:45:33.258Z,-2.04
2019-01-20T17:48:02.116Z,-2.09
2019-01-20T17:50:33.871Z,-2.17
2019-01-20T17:53:02.815Z,-2.10
2019-01-20T17:55:31.508Z,-1.99
2019-01-20T17:58:00.298Z,-1.97
2019-01-20T18:00:33.682Z,-1.97
2019-01-20T18:03:02.385Z,-2.01
2019-01-20T18:05:31.105Z,-2.16
2019-01-20T18:07:59.805Z,-2.19
2019-01-20T18:10:28.625Z,-2.16
2019-01-20T18:12:57.641Z,-2.08
2019-01-20T18:15:28.150Z,-2.12
2019-01-20T18:17:56.809Z,-2.11
2019-01-20T18:20:30.264Z,-2.16
2019-01-20T18:22:58.942Z,-2.13
2019-01-20T18:25:28.016Z,-2.26
2019-01-20T18:27:57.227Z,-2.34
2019-01-20T18:30:28.143Z,-2.21
2019-01-20T18:32:56.782Z,-2.35
2019-01-20T18:35:27.194Z,-2.23
2019-01-20T18:37:55.907Z,-2.18
2019-01-20T18:40:25.865Z,-2.30
2019-01-20T18:42:57.928Z,-2.35
2019-01-20T18:45:31.289Z,-2.30
2019-01-20T18:47:59.965Z,-2.14
2019-01-20T18:50:30.765Z,-2.19
2019-01-20T18:52:59.380Z,-2.40
2019-01-20T18:55:28.323Z,-2.45
2019-01-20T18:57:56.988Z,-2.30
2019-01-20T19:00:31.046Z,-2.38
2019-01-20T19:02:59.752Z,-2.34
2019-01-20T19:05:28.593Z,-2.35
2019-01-20T19:07:57.187Z,-2.42
2019-01-20T19:10:26.015Z,-2.49
2019-01-20T19:12:54.587Z,-2.48
2019-01-20T19:15:24.544Z,-2.57
2019-01-20T19:17:55.972Z,-2.58
2019-01-20T19:20:27.867Z,-2.57
2019-01-20T19:22:59.971Z,-2.59
2019-01-20T19:25:28.689Z,-2.69
2019-01-20T19:27:57.328Z,-2.55
2019-01-20T19:30:34.316Z,-2.66
2019-01-20T19:33:03.131Z,-2.56
2019-01-20T19:35:31.717Z,-2.56
2019-01-20T19:38:00.262Z,-2.47
2019-01-20T19:40:28.924Z,-2.60
2019-01-20T19:42:57.564Z,-2.59
2019-01-20T19:45:26.555Z,-2.57
2019-01-20T19:47:55.579Z,-2.57
2019-01-20T19:50:24.987Z,-2.45
2019-01-20T19:52:55.262Z,-2.40
2019-01-20T19:55:29.276Z,-2.53
2019-01-20T19:57:58.099Z,-2.56
2019-01-20T20:00:31.927Z,-2.53
2019-01-20T20:03:00.654Z,-2.40
2019-01-20T20:05:29.669Z,-2.46
2019-01-20T20:07:58.497Z,-2.43
2019-01-20T20:10:28.317Z,-2.70
2019-01-20T20:12:57.721Z,-2.53
2019-01-20T20:15:27.547Z,-2.62
2019-01-20T20:17:56.339Z,-2.62
2019-01-20T20:20:26.171Z,-2.64
2019-01-20T20:23:16.050Z,-2.55
2019-01-20T20:25:46.306Z,-2.56
2019-01-20T20:28:16.226Z,-2.43
2019-01-20T20:30:45.349Z,-2.36
2019-01-20T20:33:14.514Z,-2.31
2019-01-20T20:35:43.561Z,-2.49
2019-01-20T20:38:12.279Z,-2.23
2019-01-20T20:40:40.846Z,-2.29
2019-01-20T20:43:09.528Z,-2.43
2019-01-20T20:45:38.740Z,-2.47
2019-01-20T20:48:07.465Z,-2.27
2019-01-20T20:50:37.638Z,-2.40
2019-01-20T20:53:07.147Z,-2.46
2019-01-20T20:55:36.217Z,-2.46
2019-01-20T20:58:06.616Z,-2.40
2019-01-20T21:00:38.356Z,-2.43
2019-01-20T21:03:10.305Z,-2.39
2019-01-20T21:05:42.201Z,-2.27
2019-01-20T21:08:11.027Z,-2.43
2019-01-20T21:10:39.764Z,-2.32
2019-01-20T21:13:08.880Z,-2.30
2019-01-20T21:15:37.488Z,-2.31
2019-01-20T21:18:06.711Z,-2.19
2019-01-20T21:20:35.330Z,-2.02
2019-01-20T21:23:11.780Z,-1.94
2019-01-20T21:25:35.440Z,-2.02
2019-01-20T21:28:04.825Z,-1.97
2019-01-20T21:30:33.678Z,-2.12
2019-01-20T21:33:02.697Z,-2.17
2019-01-20T21:35:31.310Z,-2.05
2019-01-20T21:38:06.525Z,-2.19
2019-01-20T21:40:30.281Z,-2.14
2019-01-20T21:42:59.063Z,-2.05
2019-01-20T21:45:27.705Z,-2.27
2019-01-20T21:47:56.988Z,-2.43
2019-01-20T21:50:28.316Z,-2.19
2019-01-20T21:52:57.590Z,-2.14
2019-01-20T21:55:28.696Z,-2.03
2019-01-20T21:57:57.313Z,-2.28
2019-01-20T22:00:28.387Z,-2.41
2019-01-20T22:02:57.347Z,-2.47
2019-01-20T22:05:26.363Z,-2.50
2019-01-20T22:07:55.081Z,-2.50
2019-01-20T22:10:25.242Z,-2.36
2019-01-20T22:12:56.948Z,-2.49
2019-01-20T22:15:25.779Z,-2.24
2019-01-20T22:17:55.308Z,-2.34
2019-01-20T22:20:27.012Z,-2.40
2019-01-20T22:22:55.718Z,-2.34
2019-01-20T22:25:24.330Z,-2.24
2019-01-20T22:27:54.588Z,-2.21
2019-01-20T22:30:27.000Z,-2.17
2019-01-20T22:32:58.914Z,-2.35
2019-01-20T22:35:27.556Z,-2.42
2019-01-20T22:37:56.125Z,-2.49
2019-01-20T22:40:24.995Z,-2.23
2019-01-20T22:42:55.150Z,-2.19
2019-01-20T22:45:27.080Z,-2.13
2019-01-20T22:47:55.890Z,-2.35
2019-01-20T22:50:25.456Z,-2.21
2019-01-20T22:52:54.189Z,-2.23
2019-01-20T22:55:24.427Z,-2.30
2019-01-20T22:57:56.420Z,-2.23
2019-01-20T23:00:41.625Z,-2.14
2019-01-20T23:03:10.764Z,-2.34
2019-01-20T23:05:39.391Z,-2.21
2019-01-20T23:08:08.004Z,-2.35
2019-01-20T23:10:36.617Z,-2.51
2019-01-20T23:13:05.576Z,-2.63
2019-01-20T23:15:34.357Z,-2.48
2019-01-20T23:18:03.127Z,-2.38
2019-01-20T23:20:31.785Z,-2.41
2019-01-20T23:23:00.439Z,-2.30
2019-01-20T23:25:29.051Z,-2.22
2019-01-20T23:27:57.759Z,-2.39
2019-01-20T23:30:26.576Z,-2.17
2019-01-20T23:32:55.609Z,-2.14
2019-01-20T23:35:24.283Z,-2.05
2019-01-20T23:37:54.498Z,-2.19
2019-01-20T23:40:26.072Z,-2.26
2019-01-20T23:42:55.001Z,-2.18
2019-01-20T23:45:25.544Z,-2.28
2019-01-20T23:47:54.185Z,-2.13
2019-01-20T23:50:22.889Z,-2.15
2019-01-20T23:52:52.222Z,-2.05
2019-01-20T23:55:20.888Z,-2.06
2019-01-20T23:57:49.498Z,-2.05
